createdAt,value
2023-03-20T00:02:26.378Z,101250.38
2023-03-20T00:04:58.001Z,101249.56
2023-03-20T00:07:25.723Z,101260.34
2023-03-20T00:09:52.626Z,101257.34
2023-03-20T00:12:27.577Z,101252.91
2023-03-20T00:15:00.461Z,101254.91
2023-03-20T00:17:27.306Z,101257.97
2023-03-20T00:19:56.598Z,101254.66
2023-03-20T00:22:23.564Z,101256.34
2023-03-20T00:24:50.604Z,101248.84
2023-03-20T00:27:18.264Z,101241.72
2023-03-20T00:29:45.936Z,101248.63
2023-03-20T00:32:14.052Z,101246.00
2023-03-20T00:34:41.013Z,101248.00
2023-03-20T00:37:09.288Z,101239.31
2023-03-20T00:39:36.573Z,101246.66
2023-03-20T00:42:08.924Z,101246.34
2023-03-20T00:44:53.295Z,101238.56
2023-03-20T00:47:24.284Z,101246.66
2023-03-20T00:49:54.223Z,101235.66
2023-03-20T00:52:24.665Z,101237.13
2023-03-20T00:54:51.959Z,101235.16
2023-03-20T00:57:30.496Z,101234.81
2023-03-20T01:00:05.342Z,101229.47
2023-03-20T01:02:32.868Z,101245.03
2023-03-20T01:05:00.317Z,101242.16
2023-03-20T01:07:32.023Z,101236.84
2023-03-20T01:10:01.205Z,101240.88
2023-03-20T01:12:28.323Z,101237.81
2023-03-20T01:14:59.173Z,101240.59
2023-03-20T01:17:28.665Z,101234.81
2023-03-20T01:19:58.103Z,101235.88
2023-03-20T01:22:27.475Z,101232.22
2023-03-20T01:24:54.401Z,101241.69
2023-03-20T01:27:23.867Z,101236.53
2023-03-20T01:29:50.713Z,101241.69
2023-03-20T01:32:20.499Z,101245.56
2023-03-20T01:34:47.816Z,101237.16
2023-03-20T01:37:22.988Z,101232.72
2023-03-20T01:39:49.974Z,101235.41
2023-03-20T01:42:17.146Z,101244.22
2023-03-20T01:44:46.868Z,101236.69
2023-03-20T01:47:21.477Z,101244.34
2023-03-20T01:50:26.227Z,101250.91
2023-03-20T01:53:10.651Z,101250.47
2023-03-20T01:55:42.640Z,101250.16
2023-03-20T01:58:22.729Z,101248.28
2023-03-20T02:00:53.563Z,101248.59
2023-03-20T02:03:22.054Z,101248.59
2023-03-20T02:05:51.698Z,101249.69
2023-03-20T02:08:27.675Z,101250.38
2023-03-20T02:10:56.425Z,101252.41
2023-03-20T02:13:24.455Z,101249.66
2023-03-20T02:16:10.713Z,101249.66
2023-03-20T02:18:40.203Z,101246.53
2023-03-20T02:21:44.037Z,101245.50
2023-03-20T02:24:29.782Z,101247.00
2023-03-20T02:27:09.489Z,101243.13
2023-03-20T02:30:28.442Z,101243.06
2023-03-20T02:33:16.214Z,101244.88
2023-03-20T02:36:07.176Z,101232.78
2023-03-20T02:39:20.901Z,101234.53
2023-03-20T02:41:53.061Z,101230.38
2023-03-20T02:44:47.340Z,101223.19
2023-03-20T02:47:37.447Z,101225.59
2023-03-20T02:50:39.808Z,101227.03
2023-03-20T02:53:38.231Z,101223.97
2023-03-20T02:56:31.844Z,101226.38
2023-03-20T02:59:07.857Z,101226.50
2023-03-20T03:01:45.442Z,101222.31
2023-03-20T03:04:18.505Z,101229.06
2023-03-20T03:06:49.273Z,101231.75
2023-03-20T03:09:34.449Z,101227.38
2023-03-20T03:12:22.011Z,101229.25
2023-03-20T03:15:02.560Z,101227.41
2023-03-20T03:17:34.871Z,101218.56
2023-03-20T03:20:25.146Z,101215.53
2023-03-20T03:22:52.110Z,101217.97
2023-03-20T03:25:22.811Z,101215.22
2023-03-20T03:28:25.396Z,101224.31
2023-03-20T03:30:56.689Z,101219.75
2023-03-20T03:33:32.104Z,101225.66
2023-03-20T03:36:25.499Z,101229.00
2023-03-20T03:39:06.283Z,101226.16
2023-03-20T03:41:49.653Z,101222.91
2023-03-20T03:45:02.005Z,101221.66
2023-03-20T03:47:39.579Z,101220.81
2023-03-20T03:50:47.891Z,101221.19
2023-03-20T03:53:20.560Z,101215.84
2023-03-20T03:55:57.735Z,101215.53
2023-03-20T03:58:49.182Z,101207.88
2023-03-20T04:01:17.962Z,101205.69
2023-03-20T04:03:58.050Z,101217.56
2023-03-20T04:06:27.100Z,101209.63
2023-03-20T04:08:58.530Z,101209.19
2023-03-20T04:11:29.909Z,101209.31
2023-03-20T04:13:59.294Z,101202.22
2023-03-20T04:16:28.452Z,101204.19
2023-03-20T04:18:57.573Z,101203.25
2023-03-20T04:21:24.829Z,101200.28
2023-03-20T04:23:51.970Z,101202.28
2023-03-20T04:26:18.938Z,101204.88
2023-03-20T04:28:45.970Z,101203.31
2023-03-20T04:31:15.849Z,101195.88
2023-03-20T04:33:42.716Z,101205.50
2023-03-20T04:36:10.576Z,101204.91
2023-03-20T04:38:37.644Z,101206.59
2023-03-20T04:41:08.807Z,101204.13
2023-03-20T04:43:38.207Z,101200.38
2023-03-20T04:46:05.560Z,101194.22
2023-03-20T04:48:32.414Z,101202.53
2023-03-20T04:51:02.311Z,101202.53
2023-03-20T04:53:29.169Z,101199.50
2023-03-20T04:55:56.037Z,101207.44
2023-03-20T04:58:23.660Z,101212.81
2023-03-20T05:00:53.132Z,101221.47
2023-03-20T05:03:24.035Z,101217.53
2023-03-20T05:05:51.175Z,101217.59
2023-03-20T05:08:20.570Z,101215.34
2023-03-20T05:10:47.526Z,101212.38
2023-03-20T05:13:17.448Z,101206.31
2023-03-20T05:15:44.380Z,101206.94
2023-03-20T05:18:13.623Z,101209.94
2023-03-20T05:20:40.511Z,101214.19
2023-03-20T05:23:07.456Z,101213.69
2023-03-20T05:25:34.768Z,101207.84
2023-03-20T05:28:01.777Z,101209.09
2023-03-20T05:30:31.187Z,101207.28
2023-03-20T05:33:00.592Z,101204.06
2023-03-20T05:35:29.559Z,101213.84
2023-03-20T05:37:56.467Z,101217.78
2023-03-20T05:40:26.370Z,101224.34
2023-03-20T05:42:56.693Z,101226.69
2023-03-20T05:45:23.557Z,101222.06
2023-03-20T05:47:53.392Z,101227.13
2023-03-20T05:50:21.003Z,101226.84
2023-03-20T05:52:50.919Z,101230.66
2023-03-20T05:55:17.933Z,101222.84
2023-03-20T05:57:47.950Z,101219.56
2023-03-20T06:00:18.298Z,101230.72
2023-03-20T06:02:47.347Z,101233.38
2023-03-20T06:05:17.681Z,101220.41
2023-03-20T06:07:47.137Z,101227.47
2023-03-20T06:10:16.498Z,101240.81
2023-03-20T06:12:43.377Z,101237.66
2023-03-20T06:15:10.785Z,101240.72
2023-03-20T06:17:37.642Z,101235.72
2023-03-20T06:20:05.827Z,101238.06
2023-03-20T06:22:37.418Z,101229.66
2023-03-20T06:25:05.661Z,101230.00
2023-03-20T06:27:32.590Z,101242.84
2023-03-20T06:29:59.422Z,101237.13
2023-03-20T06:32:26.406Z,101251.88
2023-03-20T06:34:55.482Z,101255.72
2023-03-20T06:37:22.432Z,101255.41
2023-03-20T06:39:49.854Z,101259.91
2023-03-20T06:42:17.628Z,101244.91
2023-03-20T06:44:44.939Z,101260.59
2023-03-20T06:47:12.067Z,101266.88
2023-03-20T06:49:39.057Z,101267.09
2023-03-20T06:52:09.723Z,101271.47
2023-03-20T06:54:38.712Z,101273.44
2023-03-20T06:57:08.174Z,101277.22
2023-03-20T06:59:35.370Z,101276.91
2023-03-20T07:02:05.989Z,101273.13
2023-03-20T07:04:35.193Z,101266.47
2023-03-20T07:07:04.581Z,101270.00
2023-03-20T07:09:31.476Z,101268.50
2023-03-20T07:12:00.581Z,101271.00
2023-03-20T07:14:29.668Z,101280.25
2023-03-20T07:16:59.173Z,101285.69
2023-03-20T07:19:26.508Z,101285.66
2023-03-20T07:22:02.374Z,101277.41
2023-03-20T07:24:29.365Z,101278.72
2023-03-20T07:26:56.413Z,101275.31
2023-03-20T07:29:25.786Z,101296.41
2023-03-20T07:31:52.750Z,101292.28
2023-03-20T07:34:22.382Z,101284.41
2023-03-20T07:36:49.237Z,101286.88
2023-03-20T07:39:16.827Z,101290.38
2023-03-20T07:41:43.784Z,101294.25
2023-03-20T07:44:10.646Z,101294.94
2023-03-20T07:46:40.782Z,101287.19
2023-03-20T07:49:07.983Z,101295.94
2023-03-20T07:51:34.930Z,101293.72
2023-03-20T07:54:01.867Z,101295.94
2023-03-20T07:56:28.722Z,101289.94
2023-03-20T07:58:58.153Z,101295.66
2023-03-20T08:01:25.060Z,101291.47
2023-03-20T08:03:52.093Z,101298.47
2023-03-20T08:06:18.984Z,101297.44
2023-03-20T08:08:45.929Z,101285.66
2023-03-20T08:11:13.703Z,101295.13
2023-03-20T08:13:43.664Z,101303.13
2023-03-20T08:16:10.884Z,101304.34
2023-03-20T08:18:40.598Z,101300.50
2023-03-20T08:21:07.784Z,101303.31
2023-03-20T08:23:34.693Z,101297.25
2023-03-20T08:26:03.893Z,101307.66
2023-03-20T08:28:46.612Z,101309.13
2023-03-20T08:31:20.004Z,101324.53
2023-03-20T08:33:47.398Z,101317.66
2023-03-20T08:36:15.976Z,101328.66
2023-03-20T08:38:43.667Z,101327.59
2023-03-20T08:41:10.815Z,101327.69
2023-03-20T08:43:39.927Z,101328.75
2023-03-20T08:46:09.558Z,101324.72
2023-03-20T08:48:36.600Z,101333.84
2023-03-20T08:51:08.540Z,101333.28
2023-03-20T08:53:38.636Z,101323.19
2023-03-20T08:56:09.139Z,101322.75
2023-03-20T08:58:36.121Z,101322.78
2023-03-20T09:01:09.100Z,101326.88
2023-03-20T09:03:39.192Z,101326.94
2023-03-20T09:06:11.836Z,101324.91
2023-03-20T09:08:41.403Z,101331.19
2023-03-20T09:11:08.346Z,101329.75
2023-03-20T09:13:35.940Z,101324.94
2023-03-20T09:16:06.519Z,101319.06
2023-03-20T09:18:36.598Z,101321.94
2023-03-20T09:21:03.847Z,101323.53
2023-03-20T09:23:32.162Z,101324.09
2023-03-20T09:25:59.310Z,101323.75
2023-03-20T09:28:27.236Z,101327.97
2023-03-20T09:30:59.251Z,101333.00
2023-03-20T09:33:28.810Z,101331.28
2023-03-20T09:35:58.166Z,101336.59
2023-03-20T09:38:25.217Z,101332.44
2023-03-20T09:40:57.658Z,101332.16
2023-03-20T09:44:04.644Z,101331.94
2023-03-20T09:46:50.804Z,101331.84
2023-03-20T09:49:25.882Z,101335.03
2023-03-20T09:52:04.563Z,101338.22
2023-03-20T09:54:53.718Z,101331.50
2023-03-20T09:57:40.167Z,101329.69
2023-03-20T10:00:20.274Z,101334.13
2023-03-20T10:03:27.111Z,101339.91
2023-03-20T10:06:04.962Z,101340.25
2023-03-20T10:08:39.324Z,101335.53
2023-03-20T10:11:31.393Z,101328.81
2023-03-20T10:14:18.772Z,101326.34
2023-03-20T10:17:13.229Z,101327.97
2023-03-20T10:20:07.094Z,101333.06
2023-03-20T10:22:46.076Z,101329.34
2023-03-20T10:25:35.639Z,101340.56
2023-03-20T10:28:24.912Z,101341.63
2023-03-20T10:31:18.224Z,101341.97
2023-03-20T10:34:24.996Z,101340.56
2023-03-20T10:37:18.941Z,101334.50
2023-03-20T10:40:23.699Z,101337.38
2023-03-20T10:42:57.920Z,101332.16
2023-03-20T10:45:41.213Z,101325.41
2023-03-20T10:48:41.699Z,101332.09
2023-03-20T10:51:17.690Z,101333.44
2023-03-20T10:53:56.552Z,101323.69
2023-03-20T10:56:59.832Z,101320.72
2023-03-20T10:59:53.316Z,101315.34
2023-03-20T11:02:23.381Z,101315.72
2023-03-20T11:04:51.108Z,101314.63
2023-03-20T11:07:37.875Z,101307.78
2023-03-20T11:10:04.740Z,101318.66
2023-03-20T11:12:50.472Z,101311.66
2023-03-20T11:15:37.719Z,101305.75
2023-03-20T11:18:07.946Z,101307.69
2023-03-20T11:21:00.010Z,101296.13
2023-03-20T11:23:35.449Z,101297.16
2023-03-20T11:26:08.307Z,101301.41
2023-03-20T11:28:38.520Z,101299.19
2023-03-20T11:31:11.455Z,101296.47
2023-03-20T11:33:43.629Z,101291.84
2023-03-20T11:36:22.875Z,101301.91
2023-03-20T11:38:51.894Z,101300.06
2023-03-20T11:41:30.345Z,101296.31
2023-03-20T11:43:59.754Z,101291.53
2023-03-20T11:46:26.897Z,101289.47
2023-03-20T11:49:21.071Z,101295.94
2023-03-20T11:51:48.334Z,101289.50
2023-03-20T11:54:25.043Z,101285.38
2023-03-20T11:57:01.345Z,101284.16
2023-03-20T11:59:36.389Z,101282.34
2023-03-20T12:02:13.072Z,101273.16
2023-03-20T12:04:45.701Z,101267.06
2023-03-20T12:07:40.697Z,101266.03
2023-03-20T12:10:15.568Z,101261.13
2023-03-20T12:13:27.821Z,101262.25
2023-03-20T12:16:02.573Z,101263.94
2023-03-20T12:18:45.685Z,101269.38
2023-03-20T12:21:18.156Z,101274.50
2023-03-20T12:23:51.518Z,101271.28
2023-03-20T12:26:51.536Z,101275.72
2023-03-20T12:30:11.550Z,101264.50
2023-03-20T12:33:08.171Z,101262.63
2023-03-20T12:35:44.709Z,101266.66
2023-03-20T12:38:30.534Z,101270.44
2023-03-20T12:41:24.473Z,101267.03
2023-03-20T12:44:18.358Z,101260.06
2023-03-20T12:47:22.801Z,101263.63
2023-03-20T12:50:02.476Z,101261.25
2023-03-20T12:52:53.284Z,101266.88
2023-03-20T12:55:52.689Z,101269.94
2023-03-20T12:59:05.244Z,101267.72
2023-03-20T13:01:36.972Z,101259.59
2023-03-20T13:04:27.516Z,101259.94
2023-03-20T13:07:01.233Z,101260.59
2023-03-20T13:09:59.295Z,101257.81
2023-03-20T13:12:36.531Z,101256.50
2023-03-20T13:15:45.182Z,101251.72
2023-03-20T13:18:49.661Z,101250.69
2023-03-20T13:21:39.873Z,101249.66
2023-03-20T13:24:49.332Z,101253.78
2023-03-20T13:27:57.362Z,101251.06
2023-03-20T13:30:42.217Z,101247.69
2023-03-20T13:33:55.026Z,101241.72
2023-03-20T13:37:12.376Z,101241.56
2023-03-20T13:40:01.236Z,101239.34
2023-03-20T13:42:40.068Z,101229.59
2023-03-20T13:45:33.259Z,101227.09
2023-03-20T13:48:29.065Z,101226.25
2023-03-20T13:51:37.146Z,101221.78
2023-03-20T13:54:32.414Z,101216.44
2023-03-20T13:57:32.752Z,101226.63
2023-03-20T14:00:30.920Z,101212.91
2023-03-20T14:03:00.847Z,101209.47
2023-03-20T14:05:28.498Z,101203.38
2023-03-20T14:08:19.789Z,101208.41
2023-03-20T14:10:46.874Z,101211.50
2023-03-20T14:13:18.730Z,101209.75
2023-03-20T14:15:57.300Z,101195.38
2023-03-20T14:18:26.533Z,101198.34
2023-03-20T14:21:05.952Z,101201.44
2023-03-20T14:23:40.094Z,101200.41
2023-03-20T14:26:25.780Z,101198.09
2023-03-20T14:29:09.661Z,101204.81
2023-03-20T14:31:42.277Z,101208.22
2023-03-20T14:34:12.211Z,101203.09
2023-03-20T14:37:03.659Z,101193.84
2023-03-20T14:39:51.542Z,101204.16
2023-03-20T14:42:50.135Z,101199.50
2023-03-20T14:45:40.636Z,101193.16
2023-03-20T14:49:03.974Z,101197.91
2023-03-20T14:51:41.865Z,101200.91
2023-03-20T14:54:30.037Z,101203.56
2023-03-20T14:57:20.004Z,101197.56
2023-03-20T14:59:50.169Z,101206.03
2023-03-20T15:02:34.659Z,101201.38
2023-03-20T15:05:02.248Z,101206.81
2023-03-20T15:07:36.009Z,101196.25
2023-03-20T15:10:05.297Z,101204.03
2023-03-20T15:12:36.506Z,101202.00
2023-03-20T15:15:08.252Z,101199.69
2023-03-20T15:17:40.677Z,101200.03
2023-03-20T15:20:30.238Z,101192.88
2023-03-20T15:23:04.976Z,101200.72
2023-03-20T15:25:46.885Z,101200.72
2023-03-20T15:28:24.890Z,101197.34
2023-03-20T15:30:56.834Z,101197.34
2023-03-20T15:33:31.789Z,101192.59
2023-03-20T15:36:09.392Z,101200.72
2023-03-20T15:38:39.707Z,101193.25
2023-03-20T15:41:34.381Z,101198.34
2023-03-20T15:44:19.820Z,101197.66
2023-03-20T15:47:07.496Z,101202.06
2023-03-20T15:49:41.422Z,101197.16
2023-03-20T15:52:36.968Z,101200.34
2023-03-20T15:55:14.798Z,101207.31
2023-03-20T15:57:44.975Z,101208.50
2023-03-20T16:00:26.443Z,101202.00
2023-03-20T16:02:53.850Z,101208.16
2023-03-20T16:05:28.428Z,101203.75
2023-03-20T16:07:58.109Z,101200.69
2023-03-20T16:10:31.546Z,101202.06
2023-03-20T16:12:59.065Z,101196.25
2023-03-20T16:15:33.547Z,101198.16
2023-03-20T16:18:08.348Z,101196.97
2023-03-20T16:20:45.317Z,101207.22
2023-03-20T16:23:30.681Z,101197.66
2023-03-20T16:25:59.523Z,101204.28
2023-03-20T16:28:30.456Z,101197.66
2023-03-20T16:31:22.167Z,101197.28
2023-03-20T16:33:49.847Z,101195.25
2023-03-20T16:36:31.145Z,101181.28
2023-03-20T16:39:23.001Z,101181.91
2023-03-20T16:42:12.418Z,101178.81
2023-03-20T16:44:42.401Z,101177.34
2023-03-20T16:47:21.321Z,101177.25
2023-03-20T16:50:20.236Z,101172.88
2023-03-20T16:52:59.952Z,101171.50
2023-03-20T16:55:39.533Z,101167.03
2023-03-20T16:58:07.831Z,101160.25
2023-03-20T17:00:58.997Z,101159.63
2023-03-20T17:03:28.698Z,101171.69
2023-03-20T17:05:58.729Z,101173.91
2023-03-20T17:08:35.475Z,101175.44
2023-03-20T17:11:13.747Z,101169.81
2023-03-20T17:13:41.910Z,101177.63
2023-03-20T17:16:19.139Z,101176.59
2023-03-20T17:19:07.329Z,101185.56
2023-03-20T17:21:36.714Z,101185.38
2023-03-20T17:24:04.083Z,101194.88
2023-03-20T17:26:31.412Z,101200.94
2023-03-20T17:28:58.459Z,101188.78
2023-03-20T17:31:34.960Z,101197.19
2023-03-20T17:34:04.850Z,101195.53
2023-03-20T17:36:36.645Z,101193.78
2023-03-20T17:39:06.536Z,101197.72
2023-03-20T17:41:33.463Z,101198.44
2023-03-20T17:44:00.550Z,101210.41
2023-03-20T17:46:30.723Z,101216.03
2023-03-20T17:49:10.692Z,101214.34
2023-03-20T17:51:37.670Z,101225.06
2023-03-20T17:54:05.809Z,101210.81
2023-03-20T17:56:33.106Z,101224.75
2023-03-20T17:59:04.027Z,101221.72
2023-03-20T18:01:33.411Z,101224.84
2023-03-20T18:04:03.358Z,101219.75
2023-03-20T18:06:36.921Z,101222.06
2023-03-20T18:09:09.032Z,101224.75
2023-03-20T18:11:38.531Z,101224.06
2023-03-20T18:14:07.251Z,101219.34
2023-03-20T18:16:36.795Z,101222.81
2023-03-20T18:19:03.988Z,101227.56
2023-03-20T18:21:31.244Z,101227.00
2023-03-20T18:24:00.455Z,101227.81
2023-03-20T18:26:27.974Z,101228.34
2023-03-20T18:29:02.491Z,101226.88
2023-03-20T18:31:29.634Z,101230.75
2023-03-20T18:33:57.313Z,101232.56
2023-03-20T18:36:28.092Z,101230.50
2023-03-20T18:38:55.695Z,101231.16
2023-03-20T18:41:23.548Z,101232.03
2023-03-20T18:43:51.616Z,101233.34
2023-03-20T18:46:22.290Z,101237.31
2023-03-20T18:48:52.019Z,101229.50
2023-03-20T18:51:20.890Z,101236.13
2023-03-20T18:53:50.142Z,101234.50
2023-03-20T18:56:25.887Z,101229.56
2023-03-20T18:58:55.852Z,101233.59
2023-03-20T19:01:27.205Z,101223.56
2023-03-20T19:03:57.246Z,101230.25
2023-03-20T19:06:24.218Z,101237.66
2023-03-20T19:08:52.461Z,101228.19
2023-03-20T19:11:22.293Z,101231.91
2023-03-20T19:13:53.661Z,101230.84
2023-03-20T19:16:26.192Z,101228.31
2023-03-20T19:18:58.613Z,101225.66
2023-03-20T19:21:28.927Z,101234.41
2023-03-20T19:24:02.089Z,101234.50
2023-03-20T19:26:33.879Z,101232.47
2023-03-20T19:29:02.944Z,101232.19
2023-03-20T19:31:32.025Z,101226.69
2023-03-20T19:34:01.755Z,101222.31
2023-03-20T19:36:36.608Z,101226.16
2023-03-20T19:39:09.224Z,101224.25
2023-03-20T19:41:39.222Z,101220.06
2023-03-20T19:44:08.514Z,101219.44
2023-03-20T19:46:40.248Z,101227.66
2023-03-20T19:49:20.985Z,101214.50
2023-03-20T19:51:49.163Z,101224.59
2023-03-20T19:54:16.678Z,101222.00
2023-03-20T19:56:46.079Z,101219.56
2023-03-20T19:59:16.226Z,101224.94
2023-03-20T20:01:45.382Z,101226.38
2023-03-20T20:04:14.927Z,101221.91
2023-03-20T20:06:42.092Z,101228.53
2023-03-20T20:09:14.427Z,101223.59
2023-03-20T20:11:41.339Z,101218.16
2023-03-20T20:14:10.062Z,101225.81
2023-03-20T20:16:40.039Z,101218.44
2023-03-20T20:19:11.916Z,101212.38
2023-03-20T20:24:28.324Z,101217.00
2023-03-20T20:27:14.828Z,101206.03
2023-03-20T20:29:49.060Z,101213.41
2023-03-20T20:32:17.630Z,101212.41
2023-03-20T20:38:30.619Z,101213.53
2023-03-20T20:40:25.862Z,101220.78
2023-03-20T20:43:01.773Z,101221.22
2023-03-20T20:45:31.522Z,101222.91
2023-03-20T20:48:01.738Z,101224.97
2023-03-20T20:50:36.078Z,101226.72
2023-03-20T20:53:06.835Z,101222.66
2023-03-20T20:55:33.773Z,101223.91
2023-03-20T20:58:01.372Z,101229.47
2023-03-20T21:00:45.412Z,101228.50
2023-03-20T21:03:14.745Z,101232.16
2023-03-20T21:05:44.689Z,101231.09
2023-03-20T21:08:18.428Z,101238.22
2023-03-20T21:10:49.368Z,101237.88
2023-03-20T21:13:16.455Z,101244.09
2023-03-20T21:15:45.412Z,101242.69
2023-03-20T21:18:12.431Z,101247.09
2023-03-20T21:20:39.380Z,101250.38
2023-03-20T21:23:06.391Z,101251.06
2023-03-20T21:25:40.758Z,101252.16
2023-03-20T21:28:09.543Z,101248.31
2023-03-20T21:30:51.115Z,101245.09
2023-03-20T21:33:28.783Z,101248.34
2023-03-20T21:35:55.814Z,101243.16
2023-03-20T21:41:17.286Z,101243.31
2023-03-20T21:43:49.777Z,101250.38
2023-03-20T21:55:16.295Z,101236.53
2023-03-20T22:01:12.270Z,101242.28
2023-03-20T22:03:11.468Z,101235.94
2023-03-20T22:06:14.460Z,101235.34
2023-03-20T22:09:33.937Z,101238.75
2023-03-20T22:12:01.835Z,101239.44
2023-03-20T22:20:33.265Z,101234.69
2023-03-20T22:29:04.804Z,101226.97
2023-03-20T22:37:40.805Z,101229.00
2023-03-20T22:42:55.823Z,101232.25
2023-03-20T22:45:24.094Z,101235.50
2023-03-20T22:47:54.621Z,101234.25
2023-03-20T22:50:21.487Z,101221.72
2023-03-20T22:52:55.504Z,101230.19
2023-03-20T22:55:24.867Z,101229.28
2023-03-20T22:58:06.224Z,101230.44
2023-03-20T23:00:35.727Z,101234.06
2023-03-20T23:03:17.551Z,101227.25
2023-03-20T23:05:47.213Z,101230.63
2023-03-20T23:08:14.289Z,101228.78
2023-03-20T23:10:50.205Z,101231.25
2023-03-20T23:13:19.368Z,101230.03
2023-03-20T23:15:50.771Z,101224.38
2023-03-20T23:18:22.462Z,101224.44
2023-03-20T23:21:03.028Z,101219.31
2023-03-20T23:23:31.573Z,101221.56
2023-03-20T23:26:21.083Z,101216.19
2023-03-20T23:28:51.531Z,101223.38
2023-03-20T23:31:22.415Z,101218.34
2023-03-20T23:33:54.971Z,101216.84
2023-03-20T23:36:35.245Z,101210.56
2023-03-20T23:39:07.615Z,101216.13
2023-03-20T23:42:06.539Z,101210.50
2023-03-20T23:44:21.959Z,101203.06
2023-03-20T23:46:49.151Z,101203.38
2023-03-20T23:49:18.339Z,101198.97
2023-03-20T23:51:45.446Z,101196.75
2023-03-20T23:54:13.149Z,101199.44
2023-03-20T23:56:40.363Z,101196.78
